Time;durP1;ratioP1;P1;durP2;ratioP2;P2;SDS_P1;SDS_P2;PMS_P1;PMS_P2;Temp;Humidity;BMP_temperature;BMP_pressure;BME280_temperature;BME280_humidity;BME280_pressure;Samples;Min_cycle;Max_cycle;Signal;HPM_P1;HPM_P2
2021/12/17 04:59:11;;;;;;;7.22;4.43;;;;;;;3.96;80.56;101544.78;6291678;27;21239;-83
2021/12/17 05:02:16;;;;;;;11.52;4.95;;;;;;;4.00;80.12;101551.59;5415535;32;34428;-82
2021/12/17 05:05:26;;;;;;;10.57;4.70;;;;;;;4.00;80.33;101548.09;5416935;32;33826;-82
2021/12/17 05:08:32;;;;;;;9.00;4.68;;;;;;;4.00;80.62;101534.75;5417266;32;34608;-82
2021/12/17 05:18:16;;;;;;;9.50;5.00;;;;;;;4.04;79.71;101541.59;5415647;32;34480;-82
2021/12/17 05:18:31;;;;;;;7.32;3.80;;;;;;;4.03;79.11;101519.41;5416288;32;33837;-82
2021/12/17 05:21:34;;;;;;;6.37;4.28;;;;;;;4.18;78.12;101506.81;5415421;32;34620;-83
2021/12/17 05:24:37;;;;;;;6.45;4.28;;;;;;;4.19;78.12;101518.34;5412301;32;33969;-82
2021/12/17 05:27:40;;;;;;;10.38;4.72;;;;;;;4.19;78.37;101523.69;5415410;32;33698;-82
2021/12/17 05:30:46;;;;;;;6.80;4.00;;;;;;;4.26;78.42;101519.59;5415890;32;34292;-82
2021/12/17 05:33:51;;;;;;;7.25;4.45;;;;;;;4.31;78.06;101518.31;5416898;32;33767;-81
2021/12/17 05:36:54;;;;;;;10.57;5.03;;;;;;;4.26;78.46;101519.59;5418133;32;33620;-82
2021/12/17 05:39:57;;;;;;;9.00;4.43;;;;;;;4.25;79.23;101532.09;5419252;32;33838;-82
2021/12/17 05:43:02;;;;;;;8.80;5.20;;;;;;;4.17;79.88;101515.78;5417034;32;33659;-82
2021/12/17 05:46:23;;;;;;;9.23;5.20;;;;;;;4.09;80.71;101523.44;5418264;32;34937;-82
2021/12/17 05:49:27;;;;;;;9.55;5.85;;;;;;;4.10;81.32;101530.50;5405001;32;33409;-83
2021/12/17 05:52:30;;;;;;;8.95;5.70;;;;;;;4.03;82.40;101526.56;5415486;32;34523;-83
2021/12/17 05:55:34;;;;;;;11.02;6.00;;;;;;;4.00;83.09;101524.09;5422669;32;33881;-82
2021/12/17 05:58:37;;;;;;;11.15;6.47;;;;;;;3.90;84.12;101523.91;5427207;32;34361;-82
2021/12/17 06:01:39;;;;;;;13.00;6.72;;;;;;;3.85;84.85;101524.22;5426869;32;36486;-82
2021/12/17 06:04:42;;;;;;;10.55;6.07;;;;;;;3.92;84.43;101521.13;5419206;32;33694;-82
2021/12/17 06:07:45;;;;;;;10.88;6.78;;;;;;;3.83;85.28;101528.81;5406171;32;34165;-82
2021/12/17 06:10:49;;;;;;;11.05;6.37;;;;;;;3.82;85.09;101529.75;5398564;32;34211;-82
2021/12/17 06:13:53;;;;;;;10.50;5.97;;;;;;;3.82;85.10;101550.22;5397155;32;34602;-82
2021/12/17 06:16:58;;;;;;;12.35;6.45;;;;;;;3.79;85.32;101548.59;5397081;33;32559;-82
2021/12/17 06:20:02;;;;;;;14.73;7.10;;;;;;;3.78;85.08;101551.38;5396907;33;33903;-82
2021/12/17 06:23:09;;;;;;;9.00;5.87;;;;;;;3.79;85.29;101539.78;5397202;33;33800;-82
2021/12/17 06:26:11;;;;;;;11.27;5.80;;;;;;;3.84;85.12;101538.50;5399300;33;34461;-82
2021/12/17 06:29:16;;;;;;;13.68;5.90;;;;;;;3.84;85.06;101538.50;5396956;33;34622;-82
2021/12/17 06:32:21;;;;;;;9.27;5.62;;;;;;;3.80;85.38;101530.81;5396376;33;33475;-82
2021/12/17 06:35:24;;;;;;;13.10;6.35;;;;;;;3.75;85.69;101543.62;5400012;32;33513;-82
2021/12/17 06:38:26;;;;;;;9.95;6.35;;;;;;;3.75;85.90;101552.44;5409585;32;34199;-81
2021/12/17 06:41:30;;;;;;;10.60;6.55;;;;;;;3.70;85.95;101565.22;5398654;33;34789;-82
2021/12/17 06:44:33;;;;;;;12.25;7.32;;;;;;;3.83;86.08;101575.87;5396558;33;33900;-82
2021/12/17 06:47:37;;;;;;;8.18;6.15;;;;;;;3.76;86.42;101580.78;5396670;33;33473;-82
2021/12/17 07:08:52;;;;;;;10.60;6.80;;;;;;;3.84;86.78;101578.44;5402077;32;35351;-83
2021/12/17 07:10:42;;;;;;;13.05;6.28;;;;;;;3.79;86.97;101599.22;5393449;32;33441;-83
2021/12/17 07:17:21;;;;;;;10.70;6.85;;;;;;;3.84;87.02;101599.75;5409023;33;33908;-83
2021/12/17 07:33:39;;;;;;;13.52;7.28;;;;;;;4.05;85.80;101624.09;5399338;33;32329;-83
2021/12/17 07:39:51;;;;;;;10.30;6.30;;;;;;;4.17;84.95;101646.38;5392505;33;34223;-83
2021/12/17 07:42:54;;;;;;;12.20;6.55;;;;;;;4.30;84.99;101657.06;5398325;33;34064;-83
2021/12/17 07:45:58;;;;;;;10.25;6.22;;;;;;;4.34;84.32;101660.37;5398234;33;34555;-83
2021/12/17 07:49:01;;;;;;;11.77;6.57;;;;;;;4.37;83.79;101654.81;5396597;33;34936;-83
2021/12/17 07:52:06;;;;;;;10.50;6.65;;;;;;;4.51;82.98;101663.56;5398250;33;33849;-83
2021/12/17 07:55:09;;;;;;;9.07;6.18;;;;;;;4.46;82.46;101659.50;5391193;33;33756;-83
2021/12/17 07:58:12;;;;;;;9.35;6.00;;;;;;;4.63;82.18;101680.53;5394531;33;34413;-83
2021/12/17 08:01:15;;;;;;;12.37;6.22;;;;;;;4.77;80.99;101668.91;5389741;33;35336;-83
2021/12/17 08:04:19;;;;;;;12.27;5.80;;;;;;;4.86;80.69;101662.91;5393305;32;34976;-83
2021/12/17 08:07:22;;;;;;;8.77;5.47;;;;;;;4.96;80.16;101641.75;5398954;32;34407;-83
2021/12/17 08:10:26;;;;;;;10.60;5.22;;;;;;;5.00;79.71;101649.44;5396919;33;32833;-83
2021/12/17 08:13:32;;;;;;;9.80;5.75;;;;;;;5.05;78.89;101659.75;5388207;32;34945;-82
2021/12/17 08:16:55;;;;;;;8.52;5.60;;;;;;;4.98;78.53;101662.00;5399659;32;34999;-83
2021/12/17 08:29:53;;;;;;;9.93;5.53;;;;;;;5.21;78.16;101651.50;5407649;32;34976;-83
2021/12/17 08:32:57;;;;;;;8.25;5.65;;;;;;;5.29;77.42;101662.44;5395871;32;33764;-83
2021/12/17 08:36:00;;;;;;;8.80;5.18;;;;;;;5.29;77.48;101651.78;5399986;33;33952;-83
2021/12/17 08:39:04;;;;;;;10.35;5.43;;;;;;;5.28;77.37;101662.59;5398236;32;33925;-83
2021/12/17 08:42:08;;;;;;;9.80;5.50;;;;;;;5.37;77.11;101675.25;5398780;33;35068;-83
2021/12/17 08:45:11;;;;;;;7.55;5.12;;;;;;;5.33;77.08;101669.28;5399174;32;35224;-83
2021/12/17 08:48:19;;;;;;;10.15;4.85;;;;;;;5.43;77.44;101683.66;5403243;32;33635;-83
2021/12/17 08:51:23;;;;;;;10.45;5.68;;;;;;;5.53;76.49;101686.53;5399232;32;34229;-83
2021/12/17 08:54:26;;;;;;;13.20;5.68;;;;;;;5.50;76.67;101676.06;5404672;32;33737;-83
2021/12/17 08:57:29;;;;;;;13.32;6.22;;;;;;;5.48;76.47;101675.31;5397473;32;34008;-82
2021/12/17 09:00:32;;;;;;;12.77;5.53;;;;;;;5.54;76.39;101663.34;5392937;32;33593;-83
2021/12/17 09:03:36;;;;;;;9.35;5.50;;;;;;;5.75;76.59;101671.56;5395034;32;33791;-83
2021/12/17 09:06:40;;;;;;;9.77;5.28;;;;;;;5.72;75.49;101658.44;5387639;33;34604;-83
2021/12/17 09:09:46;;;;;;;7.87;5.20;;;;;;;5.74;75.45;101660.03;5401001;32;35633;-83
2021/12/17 09:12:50;;;;;;;10.52;5.05;;;;;;;5.78;75.27;101657.97;5398729;32;33524;-83
2021/12/17 09:15:59;;;;;;;8.23;4.53;;;;;;;5.94;75.02;101655.03;5398052;32;33812;-83
2021/12/17 09:19:03;;;;;;;8.73;4.80;;;;;;;6.07;73.51;101653.97;5398605;32;33411;-82
2021/12/17 09:22:06;;;;;;;9.75;4.82;;;;;;;6.05;73.29;101650.56;5399095;33;34572;-83
2021/12/17 09:25:11;;;;;;;8.43;4.93;;;;;;;6.15;73.33;101661.44;5404502;32;33711;-83
2021/12/17 09:28:15;;;;;;;9.27;5.18;;;;;;;6.16;72.78;101662.28;5400588;32;34104;-82
2021/12/17 09:31:19;;;;;;;11.40;5.57;;;;;;;6.07;73.70;101653.13;5404149;32;32314;-83
2021/12/17 09:34:22;;;;;;;7.37;5.30;;;;;;;6.08;73.60;101654.81;5407505;32;33716;-83
2021/12/17 09:37:26;;;;;;;11.00;5.00;;;;;;;5.97;74.01;101660.13;5396159;32;33894;-82
2021/12/17 09:40:29;;;;;;;10.35;5.53;;;;;;;6.08;73.69;101661.06;5393835;33;33714;-83
2021/12/17 09:43:35;;;;;;;8.65;5.57;;;;;;;6.12;73.56;101650.97;5412769;32;34736;-83
2021/12/17 09:46:38;;;;;;;9.55;4.72;;;;;;;6.15;73.56;101658.75;5405027;33;36575;-82
2021/12/17 09:49:41;;;;;;;8.98;5.40;;;;;;;6.12;74.09;101646.47;5407660;32;33776;-82
2021/12/17 09:52:44;;;;;;;12.93;5.30;;;;;;;6.15;73.43;101660.56;5395956;32;33490;-83
2021/12/17 09:55:49;;;;;;;9.93;4.75;;;;;;;6.23;73.54;101652.78;5397069;32;145207;-83
2021/12/17 09:58:52;;;;;;;6.93;4.78;;;;;;;6.20;73.34;101658.38;5398994;32;33699;-83
2021/12/17 10:01:55;;;;;;;7.40;5.07;;;;;;;6.25;73.09;101661.56;5409455;32;33953;-83
2021/12/17 10:04:58;;;;;;;10.35;5.22;;;;;;;6.37;73.12;101657.94;5406600;32;33803;-83
2021/12/17 10:08:09;;;;;;;7.10;5.07;;;;;;;6.47;72.92;101661.59;5416847;32;34030;-85
2021/12/17 10:11:15;;;;;;;9.38;4.62;;;;;;;6.48;72.14;101655.28;5416280;32;34102;-83
2021/12/17 10:14:24;;;;;;;10.10;4.90;;;;;;;6.57;71.90;101656.38;5405205;32;34379;-83
2021/12/17 10:17:28;;;;;;;10.35;5.03;;;;;;;6.44;71.99;101652.97;5414368;32;34199;-82
2021/12/17 10:20:34;;;;;;;7.80;4.78;;;;;;;6.41;72.11;101655.91;5405702;32;33913;-83
2021/12/17 10:23:42;;;;;;;8.93;4.97;;;;;;;6.55;71.76;101661.00;5401996;32;33624;-82
2021/12/17 10:26:44;;;;;;;9.27;4.62;;;;;;;6.58;72.13;101650.94;5396952;33;34525;-82
2021/12/17 10:29:47;;;;;;;8.40;4.65;;;;;;;6.65;71.39;101656.63;5402402;32;33586;-82
2021/12/17 10:32:54;;;;;;;8.30;5.03;;;;;;;6.70;71.14;101650.91;5396462;32;33514;-82
2021/12/17 10:36:02;;;;;;;7.30;4.55;;;;;;;6.65;71.33;101653.13;5400343;33;33594;-82
2021/12/17 10:39:20;;;;;;;13.27;5.07;;;;;;;6.65;70.99;101659.31;5396369;33;34254;-82
2021/12/17 10:42:37;;;;;;;10.80;4.68;;;;;;;6.64;71.50;101646.03;5396692;33;33902;-81
2021/12/17 10:45:45;;;;;;;7.53;4.12;;;;;;;6.66;70.92;101652.12;5402589;32;34057;-82
2021/12/17 10:48:54;;;;;;;9.50;4.97;;;;;;;6.79;71.36;101651.03;5400848;32;34841;-81
2021/12/17 10:52:08;;;;;;;8.77;4.35;;;;;;;6.90;71.22;101643.97;5397557;33;34208;-82
2021/12/17 10:55:16;;;;;;;8.38;4.25;;;;;;;6.98;69.74;101641.53;5398719;32;32514;-82
2021/12/17 10:58:19;;;;;;;7.20;4.37;;;;;;;7.06;69.58;101647.13;5399655;32;32363;-82
2021/12/17 11:01:45;;;;;;;6.00;4.10;;;;;;;7.08;68.70;101644.31;5396405;32;34768;-81
2021/12/17 11:04:51;;;;;;;8.73;4.15;;;;;;;7.14;68.59;101646.53;5395591;32;33464;-85
2021/12/17 11:07:54;;;;;;;11.23;4.35;;;;;;;7.12;67.96;101645.78;5397801;33;33870;-82
2021/12/17 11:11:08;;;;;;;9.23;4.30;;;;;;;7.02;67.71;101638.50;5398374;33;33973;-82
2021/12/17 11:14:22;;;;;;;10.43;4.97;;;;;;;7.14;67.96;101627.78;5401253;33;34406;-82
2021/12/17 11:17:28;;;;;;;10.05;5.03;;;;;;;7.26;67.81;101622.25;5400663;33;34414;-81
2021/12/17 11:20:41;;;;;;;9.27;4.30;;;;;;;7.30;67.63;101636.25;5402135;33;33946;-82
2021/12/17 11:23:45;;;;;;;8.95;3.92;;;;;;;7.34;67.54;101631.47;5399975;32;33930;-81
2021/12/17 11:26:48;;;;;;;9.10;4.35;;;;;;;7.45;66.70;101639.50;5398774;33;33290;-82
2021/12/17 11:29:51;;;;;;;8.90;4.18;;;;;;;7.58;66.81;101633.97;5398780;33;33627;-82
2021/12/17 11:32:57;;;;;;;7.28;4.40;;;;;;;7.93;64.91;101636.38;5387590;33;33924;-82
2021/12/17 11:36:00;;;;;;;8.23;4.10;;;;;;;8.13;64.49;101629.31;5399228;32;33945;-82
2021/12/17 11:39:26;;;;;;;8.27;4.30;;;;;;;8.07;64.25;101630.72;5410317;32;34813;-82
2021/12/17 11:42:59;;;;;;;9.18;3.83;;;;;;;8.38;62.70;101622.69;5408395;32;34105;-82
2021/12/17 11:46:14;;;;;;;10.13;4.10;;;;;;;8.71;62.11;101628.81;5393688;32;33532;-81
2021/12/17 11:49:17;;;;;;;10.05;4.47;;;;;;;8.83;60.87;101617.84;5391183;32;34566;-82
2021/12/17 11:52:33;;;;;;;10.88;4.62;;;;;;;9.39;60.16;101615.56;5392284;32;33846;-82
2021/12/17 11:55:37;;;;;;;11.52;4.25;;;;;;;9.45;58.57;101607.81;5394611;32;34514;-84
2021/12/17 11:58:53;;;;;;;10.27;3.92;;;;;;;9.13;59.00;101617.94;5398596;33;33835;-87
2021/12/17 12:02:12;;;;;;;8.30;4.28;;;;;;;9.05;59.27;101616.78;5390722;32;33843;-82
2021/12/17 12:05:45;;;;;;;7.87;3.97;;;;;;;9.07;59.34;101619.34;5404357;32;33811;-82
2021/12/17 12:08:50;;;;;;;9.52;4.37;;;;;;;9.80;57.62;101610.91;5389758;32;33630;-83
2021/12/17 12:12:10;;;;;;;6.78;4.03;;;;;;;9.72;56.70;101604.41;5399057;32;34129;-82
2021/12/17 12:15:23;;;;;;;8.95;4.50;;;;;;;10.06;55.92;101592.31;5396887;32;34491;-82
2021/12/17 12:18:57;;;;;;;6.90;3.58;;;;;;;10.01;55.28;101592.75;5398377;32;34526;-82
2021/12/17 12:22:04;;;;;;;9.73;3.90;;;;;;;10.35;54.80;101597.66;5401186;32;34893;-82
2021/12/17 12:25:30;;;;;;;8.63;4.47;;;;;;;10.23;54.86;101602.34;5414216;32;33996;-81
2021/12/17 12:28:45;;;;;;;9.73;4.03;;;;;;;10.30;54.99;101597.28;5400906;33;35229;-83
2021/12/17 12:32:18;;;;;;;8.55;4.10;;;;;;;11.12;52.54;101600.00;5411919;33;34040;-82
2021/12/17 12:35:21;;;;;;;5.82;3.60;;;;;;;11.71;50.48;101599.59;5408777;33;33936;-83
2021/12/17 12:38:31;;;;;;;9.82;4.28;;;;;;;11.95;49.43;101615.16;5402758;33;34141;-83
2021/12/17 12:42:07;;;;;;;9.05;3.58;;;;;;;13.14;46.04;101599.09;5401934;33;34204;-83
2021/12/17 12:45:12;;;;;;;7.87;3.08;;;;;;;13.84;44.45;101604.13;5392829;33;33424;-82
2021/12/17 12:48:40;;;;;;;9.00;3.58;;;;;;;13.14;44.97;101601.78;5394528;33;33797;-83
2021/12/17 12:51:47;;;;;;;6.47;3.42;;;;;;;13.25;45.26;101611.44;5390215;33;34888;-82
2021/12/17 12:55:02;;;;;;;6.93;3.45;;;;;;;13.78;43.51;101602.09;5399096;33;34666;-82
2021/12/17 12:58:12;;;;;;;9.90;3.67;;;;;;;12.93;45.55;101600.38;5399246;33;33923;-82
2021/12/17 13:01:18;;;;;;;7.12;3.78;;;;;;;12.08;47.52;101593.13;5411668;32;34098;-82
2021/12/17 13:04:22;;;;;;;6.72;3.53;;;;;;;10.75;50.61;101591.97;5411364;32;34817;-86
2021/12/17 13:07:35;;;;;;;8.90;3.65;;;;;;;10.19;52.35;101588.31;5418908;32;34645;-86
2021/12/17 13:10:41;;;;;;;6.87;3.47;;;;;;;9.30;55.50;101598.41;5403659;32;33737;-82
2021/12/17 13:13:51;;;;;;;12.55;4.18;;;;;;;8.43;58.98;101587.44;5397568;33;34681;-83
2021/12/17 13:17:17;;;;;;;8.43;3.80;;;;;;;7.90;60.89;101580.34;5414484;32;33440;-82
2021/12/17 13:20:53;;;;;;;8.95;3.80;;;;;;;7.45;63.33;101593.94;5397628;33;33901;-82
2021/12/17 13:27:31;;;;;;;15.13;4.30;;;;;;;6.72;67.05;101582.91;5384903;32;34568;-82
2021/12/17 13:30:34;;;;;;;6.35;3.90;;;;;;;6.57;67.90;101584.97;5409179;32;33492;-81
2021/12/17 13:33:38;;;;;;;8.57;4.22;;;;;;;6.55;68.30;101578.94;5397261;33;34191;-82
2021/12/17 13:37:10;;;;;;;8.13;4.20;;;;;;;6.42;69.18;101572.00;5397136;33;34376;-81
2021/12/17 13:40:13;;;;;;;9.63;4.20;;;;;;;6.32;69.53;101579.91;5394747;33;34059;-85
2021/12/17 13:43:26;;;;;;;8.10;4.25;;;;;;;6.19;70.32;101577.31;5395658;33;33790;-86
2021/12/17 13:46:29;;;;;;;9.90;4.10;;;;;;;6.20;70.51;101583.50;5397405;33;34176;-82
2021/12/17 13:49:32;;;;;;;7.43;4.40;;;;;;;6.06;71.13;101584.59;5396776;33;33538;-82
2021/12/17 13:52:45;;;;;;;16.35;4.43;;;;;;;5.98;71.13;101587.84;5396714;33;35385;-82
2021/12/17 13:55:50;;;;;;;7.87;4.50;;;;;;;5.97;71.81;101601.31;5394568;33;33835;-82
2021/12/17 13:59:00;;;;;;;7.20;4.20;;;;;;;5.96;71.98;101615.66;5394173;33;34138;-82
2021/12/17 14:02:08;;;;;;;10.48;4.40;;;;;;;5.95;72.18;101609.47;5395584;33;33826;-82
2021/12/17 14:05:40;;;;;;;9.48;4.45;;;;;;;5.93;72.13;101607.84;5393559;33;33466;-82
2021/12/17 14:08:43;;;;;;;5.95;3.67;;;;;;;5.93;71.84;101600.72;5395022;33;34291;-82
2021/12/17 14:11:47;;;;;;;6.37;3.80;;;;;;;5.89;72.19;101610.75;5396964;33;34166;-82
2021/12/17 14:15:15;;;;;;;7.65;4.75;;;;;;;5.76;71.71;101599.31;5404564;32;34568;-82
2021/12/17 14:18:21;;;;;;;10.27;4.53;;;;;;;5.69;72.31;101598.91;5393909;33;34692;-81
2021/12/17 14:21:29;;;;;;;8.00;4.00;;;;;;;5.64;72.53;101601.06;5397398;33;33428;-82
2021/12/17 14:24:31;;;;;;;10.77;4.35;;;;;;;5.62;73.25;101587.00;5397681;33;33914;-82
2021/12/17 14:27:45;;;;;;;9.15;4.50;;;;;;;5.44;73.58;101602.59;5399435;33;33873;-81
2021/12/17 14:31:10;;;;;;;9.48;4.18;;;;;;;5.37;74.30;101596.00;5401406;32;33242;-82
2021/12/17 14:34:16;;;;;;;7.85;4.28;;;;;;;5.28;74.39;101590.50;5400896;33;34242;-87
2021/12/17 14:37:20;;;;;;;9.65;4.60;;;;;;;5.21;74.88;101590.09;5399054;33;32614;-83
2021/12/17 14:40:45;;;;;;;10.75;4.68;;;;;;;5.15;74.90;101578.06;5398738;33;33795;-83
2021/12/17 14:44:00;;;;;;;8.98;4.70;;;;;;;5.14;75.06;101591.50;5400764;33;33698;-83
2021/12/17 14:47:30;;;;;;;10.57;4.50;;;;;;;5.12;75.71;101590.75;5397019;33;34014;-83
2021/12/17 15:00:34;;;;;;;9.00;4.40;;;;;;;4.80;77.01;101593.09;5399221;33;34182;-83
2021/12/17 15:06:43;;;;;;;11.70;5.20;;;;;;;4.80;77.51;101585.97;5400800;33;34055;-82
2021/12/17 15:09:46;;;;;;;9.95;4.57;;;;;;;4.70;77.84;101580.41;5404858;32;33948;-82
2021/12/17 15:13:08;;;;;;;9.07;4.37;;;;;;;4.71;77.50;101587.47;5400944;33;34347;-82
2021/12/17 15:16:11;;;;;;;10.05;4.60;;;;;;;4.65;77.72;101581.72;5412460;33;33876;-83
2021/12/17 15:19:14;;;;;;;7.30;4.28;;;;;;;4.65;76.98;101585.25;5409807;33;34312;-83
2021/12/17 15:22:17;;;;;;;10.10;4.60;;;;;;;4.62;77.33;101584.59;5400517;33;33934;-83
2021/12/17 15:25:20;;;;;;;8.00;4.18;;;;;;;4.63;77.58;101576.50;5399469;33;34040;-83
2021/12/17 15:28:26;;;;;;;8.63;4.70;;;;;;;4.68;76.49;101582.37;5398056;33;33616;-83
2021/12/17 15:31:29;;;;;;;15.68;4.93;;;;;;;4.59;77.39;101575.00;5398791;33;33888;-83
2021/12/17 15:34:32;;;;;;;9.93;4.50;;;;;;;4.75;77.55;101591.62;5398300;33;34537;-83
2021/12/17 15:37:34;;;;;;;8.73;4.22;;;;;;;4.72;76.74;101583.00;5397321;33;33803;-83
2021/12/17 15:40:40;;;;;;;10.55;5.10;;;;;;;4.72;77.24;101591.00;5398463;33;33375;-82
2021/12/17 15:43:43;;;;;;;11.00;4.82;;;;;;;4.64;77.58;101580.88;5398583;33;33961;-83
2021/12/17 15:46:46;;;;;;;13.70;5.30;;;;;;;4.57;77.54;101595.63;5397945;33;33926;-83
2021/12/17 15:49:49;;;;;;;9.57;4.55;;;;;;;4.64;77.73;101594.19;5395982;33;34010;-82
2021/12/17 15:52:52;;;;;;;12.37;5.00;;;;;;;4.54;78.55;101590.50;5397798;33;33332;-82
2021/12/17 15:55:55;;;;;;;10.80;4.97;;;;;;;4.58;77.83;101599.97;5412686;33;34695;-82
2021/12/17 15:58:59;;;;;;;12.37;4.97;;;;;;;4.62;78.04;101603.28;5404390;33;35144;-82
2021/12/17 16:02:03;;;;;;;7.60;4.70;;;;;;;4.65;77.83;101595.06;5387736;33;33261;-82
2021/12/17 16:05:08;;;;;;;10.73;4.85;;;;;;;4.60;77.94;101598.06;5395463;33;33974;-81
2021/12/17 16:08:11;;;;;;;9.07;4.95;;;;;;;4.53;77.92;101600.31;5397551;33;34638;-81
2021/12/17 16:11:37;;;;;;;9.18;4.70;;;;;;;4.44;78.40;101605.44;5394740;33;34859;-81
2021/12/17 16:18:40;;;;;;;8.82;5.10;;;;;;;4.37;78.51;101606.84;5397346;33;32081;-82
2021/12/17 16:21:23;;;;;;;13.23;4.78;;;;;;;4.31;78.92;101608.97;5394027;33;33979;-82
2021/12/17 16:24:27;;;;;;;10.30;4.93;;;;;;;4.31;78.93;101602.78;5388730;33;33951;-82
2021/12/17 16:27:29;;;;;;;13.85;4.97;;;;;;;4.26;79.01;101600.41;5394387;33;32610;-82
2021/12/17 16:30:32;;;;;;;8.15;4.75;;;;;;;4.23;79.21;101597.13;5395489;33;33866;-82
2021/12/17 16:33:37;;;;;;;9.27;5.20;;;;;;;4.19;79.38;101606.31;5395252;32;34662;-85
2021/12/17 16:36:42;;;;;;;11.07;5.12;;;;;;;4.22;79.30;101612.28;5393868;33;34000;-86
2021/12/17 16:39:45;;;;;;;9.77;5.05;;;;;;;4.18;79.28;101605.44;5393020;32;33781;-86
2021/12/17 16:42:51;;;;;;;11.10;5.60;;;;;;;4.07;80.02;101608.84;5403521;32;34012;-83
2021/12/17 16:46:11;;;;;;;12.13;5.15;;;;;;;4.13;79.71;101614.72;5399226;32;35010;-83
2021/12/17 16:49:18;;;;;;;11.35;5.12;;;;;;;4.12;79.47;101619.19;5393454;32;34271;-82
2021/12/17 16:52:26;;;;;;;12.63;5.53;;;;;;;4.05;79.83;101607.25;5391786;32;33943;-82
2021/12/17 16:55:30;;;;;;;12.00;4.90;;;;;;;4.04;79.68;101608.22;5391972;32;34294;-82
2021/12/17 16:58:33;;;;;;;9.73;5.22;;;;;;;4.09;79.45;101601.62;5394021;32;34485;-82
2021/12/17 17:01:39;;;;;;;11.85;5.25;;;;;;;4.07;79.51;101594.69;5397034;32;34320;-82
2021/12/17 17:04:42;;;;;;;9.25;5.07;;;;;;;4.02;79.93;101597.66;5399530;32;33804;-82
2021/12/17 17:07:45;;;;;;;9.73;5.57;;;;;;;4.01;80.11;101584.44;5398334;32;33564;-82
2021/12/17 17:10:53;;;;;;;9.55;4.85;;;;;;;3.99;80.35;101589.03;5397141;32;34101;-82
2021/12/17 17:13:59;;;;;;;10.23;5.95;;;;;;;3.98;80.59;101592.63;5399967;32;35074;-82
2021/12/17 17:17:08;;;;;;;9.45;5.50;;;;;;;3.94;80.78;101599.97;5394205;32;33858;-82
2021/12/17 17:20:11;;;;;;;9.95;5.47;;;;;;;3.94;80.89;101602.66;5394474;33;36236;-82
2021/12/17 17:23:15;;;;;;;10.00;5.45;;;;;;;3.92;80.97;101591.25;5398769;32;34985;-82
2021/12/17 17:26:18;;;;;;;9.85;5.62;;;;;;;3.89;81.14;101591.47;5400748;32;32967;-82
2021/12/17 17:29:21;;;;;;;10.50;5.75;;;;;;;3.90;81.28;101589.66;5397464;32;34221;-82
2021/12/17 17:32:23;;;;;;;12.93;6.00;;;;;;;3.90;81.34;101587.00;5397084;32;34209;-82
2021/12/17 17:35:27;;;;;;;13.30;5.97;;;;;;;3.82;81.80;101596.34;5394408;32;34395;-82
2021/12/17 17:38:29;;;;;;;9.95;5.20;;;;;;;3.82;81.68;101591.00;5392558;32;34472;-82
2021/12/17 17:41:32;;;;;;;11.82;5.90;;;;;;;3.81;81.81;101610.63;5392059;33;34959;-81
2021/12/17 17:44:35;;;;;;;9.48;5.78;;;;;;;3.81;82.04;101607.97;5401320;32;33871;-82
2021/12/17 17:47:45;;;;;;;11.38;5.68;;;;;;;3.83;81.89;101602.50;5391611;33;34359;-81
2021/12/17 17:50:48;;;;;;;;;;;;;;;3.78;82.54;101602.84;5396839;33;33838;-83
2021/12/17 17:53:51;;;;;;;11.12;6.05;;;;;;;3.70;82.95;101594.50;5396247;33;34660;-81
2021/12/17 17:56:54;;;;;;;12.30;5.32;;;;;;;3.75;82.75;101588.88;5391948;33;34486;-81
2021/12/17 17:59:57;;;;;;;15.50;5.78;;;;;;;3.72;83.16;101581.97;5394775;33;34611;-82
2021/12/17 18:03:00;;;;;;;15.65;7.20;;;;;;;3.69;83.53;101586.66;5394230;32;34328;-81
2021/12/17 18:06:04;;;;;;;10.20;6.35;;;;;;;3.66;83.86;101586.81;5389304;32;34282;-80
2021/12/17 18:09:07;;;;;;;12.77;6.35;;;;;;;3.67;83.54;101586.72;5391805;33;35278;-82
2021/12/17 18:12:11;;;;;;;13.15;6.70;;;;;;;3.69;83.36;101584.81;5395705;32;34004;-81
2021/12/17 18:15:15;;;;;;;10.95;6.30;;;;;;;3.62;83.57;101588.84;5410676;32;33890;-82
2021/12/17 18:18:19;;;;;;;12.30;5.97;;;;;;;3.54;83.75;101586.72;5396185;32;32179;-85
2021/12/17 18:21:22;;;;;;;13.68;6.47;;;;;;;3.62;83.31;101578.19;5393297;32;34467;-86
2021/12/17 18:24:24;;;;;;;13.57;6.12;;;;;;;3.60;83.28;101577.47;5390648;33;34065;-83
2021/12/17 18:27:27;;;;;;;14.70;6.60;;;;;;;3.64;83.09;101577.13;5393494;33;34869;-82
2021/12/17 18:30:30;;;;;;;11.82;6.50;;;;;;;3.58;83.57;101580.22;5398224;32;33886;-83
2021/12/17 18:33:32;;;;;;;12.20;6.00;;;;;;;3.61;83.10;101600.47;5396681;32;33536;-82
2021/12/17 18:36:36;;;;;;;12.13;6.20;;;;;;;3.55;83.34;101595.56;5394712;32;33825;-82
2021/12/17 18:39:40;;;;;;;11.65;5.55;;;;;;;3.65;82.60;101612.59;5394902;32;34614;-82
2021/12/17 18:46:05;;;;;;;10.63;6.55;;;;;;;3.49;83.62;101607.47;5396794;32;33785;-81
2021/12/17 18:49:08;;;;;;;11.10;6.05;;;;;;;3.49;83.41;101618.09;5400250;32;33464;-81
2021/12/17 18:52:11;;;;;;;12.63;5.90;;;;;;;3.53;83.44;101618.75;5397499;32;34718;-81
2021/12/17 18:55:14;;;;;;;12.18;6.55;;;;;;;3.55;83.15;101620.37;5395196;32;33886;-81
2021/12/17 18:58:21;;;;;;;11.48;5.95;;;;;;;3.49;83.32;101623.44;5401426;32;33689;-81
2021/12/17 19:01:25;;;;;;;11.75;6.40;;;;;;;3.44;83.56;101630.00;5411575;33;34282;-81
2021/12/17 19:04:28;;;;;;;14.23;6.62;;;;;;;3.36;83.96;101634.06;5393183;32;34602;-81
2021/12/17 19:07:31;;;;;;;13.15;6.70;;;;;;;3.44;83.49;101636.19;5393422;32;34472;-81
2021/12/17 19:10:33;;;;;;;12.55;6.25;;;;;;;3.41;83.54;101639.06;5395296;32;33526;-81
2021/12/17 19:13:38;;;;;;;14.68;6.62;;;;;;;3.36;83.85;101630.50;5396427;32;34110;-82
2021/12/17 19:16:45;;;;;;;13.88;6.80;;;;;;;3.38;83.85;101636.59;5396892;32;33452;-81
2021/12/17 19:19:53;;;;;;;14.20;6.55;;;;;;;3.32;83.87;101637.00;5395146;32;35204;-81
2021/12/17 19:23:00;;;;;;;12.10;6.40;;;;;;;3.34;83.76;101635.94;5393533;32;33620;-82
2021/12/17 19:26:03;;;;;;;11.40;6.45;;;;;;;3.33;83.44;101639.53;5396965;32;33654;-82
2021/12/17 19:29:06;;;;;;;11.60;6.03;;;;;;;3.38;83.05;101633.94;5399728;32;32444;-82
2021/12/17 19:32:09;;;;;;;12.32;6.68;;;;;;;3.35;82.88;101639.47;5398135;32;33779;-81
2021/12/17 19:35:15;;;;;;;13.93;6.80;;;;;;;3.29;82.89;101637.19;5396731;32;34242;-81
2021/12/17 19:38:18;;;;;;;13.45;6.40;;;;;;;3.36;82.51;101639.38;5394708;33;34239;-81
2021/12/17 19:41:20;;;;;;;13.18;6.22;;;;;;;3.36;82.55;101642.03;5392800;32;33821;-81
2021/12/17 19:44:24;;;;;;;11.38;6.40;;;;;;;3.37;81.97;101637.56;5395081;32;34471;-81
2021/12/17 19:47:55;;;;;;;11.55;6.28;;;;;;;3.29;82.21;101619.41;5396071;32;33861;-82
2021/12/17 19:50:58;;;;;;;10.38;5.70;;;;;;;3.29;81.90;101632.72;5393124;32;33534;-86
2021/12/17 19:54:01;;;;;;;13.60;6.00;;;;;;;3.28;81.52;101628.38;5394068;33;34854;-85
2021/12/17 19:57:05;;;;;;;14.30;6.30;;;;;;;3.26;81.15;101630.25;5391189;32;33922;-83
2021/12/17 20:00:14;;;;;;;9.20;5.20;;;;;;;3.27;80.57;101620.47;5395856;32;33989;-82
2021/12/17 20:03:18;;;;;;;11.05;5.60;;;;;;;3.23;80.54;101625.12;5395575;33;33166;-82
2021/12/17 20:06:22;;;;;;;10.85;5.53;;;;;;;3.20;80.61;101622.69;5391364;33;34710;-81
2021/12/17 20:09:25;;;;;;;9.15;5.18;;;;;;;3.26;79.68;101630.25;5396783;33;34373;-82
2021/12/17 20:12:28;;;;;;;15.45;6.03;;;;;;;3.23;79.46;101633.13;5394270;33;34345;-81
2021/12/17 20:15:31;;;;;;;8.30;4.90;;;;;;;3.24;78.69;101626.84;5396131;32;33138;-82
2021/12/17 20:18:34;;;;;;;11.55;5.90;;;;;;;3.28;77.78;101622.19;5396553;33;34422;-82
2021/12/17 20:21:37;;;;;;;9.98;5.22;;;;;;;3.21;78.49;101627.03;5393394;33;33798;-82
2021/12/17 20:24:40;;;;;;;9.50;5.70;;;;;;;3.17;78.28;101631.72;5394336;32;33404;-82
2021/12/17 20:27:45;;;;;;;10.40;5.32;;;;;;;3.19;78.12;101631.62;5394378;33;33557;-82
2021/12/17 20:30:48;;;;;;;6.43;4.65;;;;;;;3.15;78.76;101632.75;5394119;33;34281;-82
2021/12/17 20:33:51;;;;;;;10.68;5.55;;;;;;;3.09;79.45;101633.16;5395524;33;33938;-82
2021/12/17 20:36:55;;;;;;;8.70;5.72;;;;;;;3.11;79.52;101637.44;5395871;33;33381;-82
2021/12/17 20:39:58;;;;;;;12.80;5.82;;;;;;;3.10;79.66;101637.50;5397524;32;32361;-82
2021/12/17 20:43:07;;;;;;;10.75;5.55;;;;;;;3.03;80.21;101629.09;5394804;33;33792;-82
2021/12/17 20:46:12;;;;;;;10.57;5.80;;;;;;;3.05;80.19;101636.97;5395315;33;32785;-81